sensor_id;sensor_type;location;lat;lon;timestamp;temperature;humidity
15983;DHT22;14442;50.196;8.096;2023-08-21T00:00:29;25.10;81.20
15983;DHT22;14442;50.196;8.096;2023-08-21T00:02:55;25.10;81.10
15983;DHT22;14442;50.196;8.096;2023-08-21T00:05:22;25.10;81.10
15983;DHT22;14442;50.196;8.096;2023-08-21T00:07:49;25.10;81.00
15983;DHT22;14442;50.196;8.096;2023-08-21T00:10:16;25.00;80.80
15983;DHT22;14442;50.196;8.096;2023-08-21T00:12:43;25.00;80.80
15983;DHT22;14442;50.196;8.096;2023-08-21T00:15:11;25.10;80.80
15983;DHT22;14442;50.196;8.096;2023-08-21T00:17:38;25.10;80.80
15983;DHT22;14442;50.196;8.096;2023-08-21T00:20:05;25.10;80.60
15983;DHT22;14442;50.196;8.096;2023-08-21T00:22:34;25.00;80.50
15983;DHT22;14442;50.196;8.096;2023-08-21T00:25:01;25.00;80.40
15983;DHT22;14442;50.196;8.096;2023-08-21T00:27:28;25.00;80.30
15983;DHT22;14442;50.196;8.096;2023-08-21T00:29:55;25.00;80.30
15983;DHT22;14442;50.196;8.096;2023-08-21T00:32:23;25.00;80.20
15983;DHT22;14442;50.196;8.096;2023-08-21T00:34:49;25.00;80.10
15983;DHT22;14442;50.196;8.096;2023-08-21T00:37:16;25.00;80.00
15983;DHT22;14442;50.196;8.096;2023-08-21T00:39:43;25.00;80.00
15983;DHT22;14442;50.196;8.096;2023-08-21T00:42:09;25.00;79.90
15983;DHT22;14442;50.196;8.096;2023-08-21T00:44:36;25.00;79.90
15983;DHT22;14442;50.196;8.096;2023-08-21T00:47:03;25.00;79.90
15983;DHT22;14442;50.196;8.096;2023-08-21T00:49:31;25.00;79.80
15983;DHT22;14442;50.196;8.096;2023-08-21T00:51:58;25.00;79.80
15983;DHT22;14442;50.196;8.096;2023-08-21T00:54:26;25.00;79.70
15983;DHT22;14442;50.196;8.096;2023-08-21T00:56:52;25.00;79.80
15983;DHT22;14442;50.196;8.096;2023-08-21T00:59:19;25.00;79.70
15983;DHT22;14442;50.196;8.096;2023-08-21T01:01:46;25.00;79.70
15983;DHT22;14442;50.196;8.096;2023-08-21T01:04:13;25.00;79.60
15983;DHT22;14442;50.196;8.096;2023-08-21T01:06:41;25.00;79.60
15983;DHT22;14442;50.196;8.096;2023-08-21T01:09:14;25.00;79.60
15983;DHT22;14442;50.196;8.096;2023-08-21T01:11:49;25.00;79.60
15983;DHT22;14442;50.196;8.096;2023-08-21T01:14:21;24.90;79.40
15983;DHT22;14442;50.196;8.096;2023-08-21T01:16:54;24.90;79.50
15983;DHT22;14442;50.196;8.096;2023-08-21T01:19:28;25.00;79.60
15983;DHT22;14442;50.196;8.096;2023-08-21T01:21:58;24.90;79.50
15983;DHT22;14442;50.196;8.096;2023-08-21T01:24:27;24.90;79.50
15983;DHT22;14442;50.196;8.096;2023-08-21T01:26:53;24.90;79.40
15983;DHT22;14442;50.196;8.096;2023-08-21T01:29:20;24.90;79.50
15983;DHT22;14442;50.196;8.096;2023-08-21T01:31:52;24.90;79.30
15983;DHT22;14442;50.196;8.096;2023-08-21T01:34:22;24.90;79.30
15983;DHT22;14442;50.196;8.096;2023-08-21T01:36:49;24.90;79.30
15983;DHT22;14442;50.196;8.096;2023-08-21T01:39:16;24.90;79.30
15983;DHT22;14442;50.196;8.096;2023-08-21T01:41:45;24.80;79.20
15983;DHT22;14442;50.196;8.096;2023-08-21T01:44:11;24.90;79.20
15983;DHT22;14442;50.196;8.096;2023-08-21T01:46:39;24.90;79.20
15983;DHT22;14442;50.196;8.096;2023-08-21T01:49:06;24.90;79.10
15983;DHT22;14442;50.196;8.096;2023-08-21T01:51:33;24.90;79.10
15983;DHT22;14442;50.196;8.096;2023-08-21T01:53:59;24.90;79.10
15983;DHT22;14442;50.196;8.096;2023-08-21T01:56:26;24.90;79.10
15983;DHT22;14442;50.196;8.096;2023-08-21T01:58:54;24.90;79.10
15983;DHT22;14442;50.196;8.096;2023-08-21T02:01:21;24.90;79.10
15983;DHT22;14442;50.196;8.096;2023-08-21T02:03:48;24.90;79.10
15983;DHT22;14442;50.196;8.096;2023-08-21T02:06:15;24.90;79.20
15983;DHT22;14442;50.196;8.096;2023-08-21T02:08:42;24.90;79.20
15983;DHT22;14442;50.196;8.096;2023-08-21T02:11:08;24.90;79.20
15983;DHT22;14442;50.196;8.096;2023-08-21T02:13:35;24.90;79.20
15983;DHT22;14442;50.196;8.096;2023-08-21T02:16:03;24.90;80.00
15983;DHT22;14442;50.196;8.096;2023-08-21T02:18:30;24.80;79.10
15983;DHT22;14442;50.196;8.096;2023-08-21T02:20:57;24.80;79.10
15983;DHT22;14442;50.196;8.096;2023-08-21T02:23:23;24.80;79.10
15983;DHT22;14442;50.196;8.096;2023-08-21T02:25:50;24.80;79.10
15983;DHT22;14442;50.196;8.096;2023-08-21T02:28:17;24.80;79.10
15983;DHT22;14442;50.196;8.096;2023-08-21T02:30:44;24.80;79.10
15983;DHT22;14442;50.196;8.096;2023-08-21T02:33:12;24.80;79.10
15983;DHT22;14442;50.196;8.096;2023-08-21T02:35:39;24.80;79.80
15983;DHT22;14442;50.196;8.096;2023-08-21T02:38:06;24.80;79.10
15983;DHT22;14442;50.196;8.096;2023-08-21T02:40:33;24.80;79.00
15983;DHT22;14442;50.196;8.096;2023-08-21T02:42:59;24.80;79.10
15983;DHT22;14442;50.196;8.096;2023-08-21T02:45:26;24.80;79.10
15983;DHT22;14442;50.196;8.096;2023-08-21T02:47:53;24.80;79.10
15983;DHT22;14442;50.196;8.096;2023-08-21T02:50:21;24.80;79.10
15983;DHT22;14442;50.196;8.096;2023-08-21T02:52:48;24.80;79.10
15983;DHT22;14442;50.196;8.096;2023-08-21T02:55:14;24.80;79.20
15983;DHT22;14442;50.196;8.096;2023-08-21T02:57:41;24.80;79.40
15983;DHT22;14442;50.196;8.096;2023-08-21T03:00:08;24.80;79.40
15983;DHT22;14442;50.196;8.096;2023-08-21T03:02:36;24.80;79.50
15983;DHT22;14442;50.196;8.096;2023-08-21T03:05:03;24.80;79.40
15983;DHT22;14442;50.196;8.096;2023-08-21T03:07:32;24.80;79.40
15983;DHT22;14442;50.196;8.096;2023-08-21T03:09:58;24.70;79.40
15983;DHT22;14442;50.196;8.096;2023-08-21T03:12:27;24.70;79.60
15983;DHT22;14442;50.196;8.096;2023-08-21T03:14:54;24.70;79.60
15983;DHT22;14442;50.196;8.096;2023-08-21T03:17:20;24.70;80.50
15983;DHT22;14442;50.196;8.096;2023-08-21T03:19:47;24.70;80.00
15983;DHT22;14442;50.196;8.096;2023-08-21T03:22:14;24.70;80.00
15983;DHT22;14442;50.196;8.096;2023-08-21T03:24:42;24.70;80.00
15983;DHT22;14442;50.196;8.096;2023-08-21T03:27:08;24.70;80.10
15983;DHT22;14442;50.196;8.096;2023-08-21T03:29:35;24.70;80.00
15983;DHT22;14442;50.196;8.096;2023-08-21T03:32:02;24.70;80.30
15983;DHT22;14442;50.196;8.096;2023-08-21T03:34:29;24.70;80.20
15983;DHT22;14442;50.196;8.096;2023-08-21T03:36:55;24.70;80.30
15983;DHT22;14442;50.196;8.096;2023-08-21T03:39:22;24.70;80.80
15983;DHT22;14442;50.196;8.096;2023-08-21T03:41:50;24.70;80.50
15983;DHT22;14442;50.196;8.096;2023-08-21T03:44:17;24.70;80.10
15983;DHT22;14442;50.196;8.096;2023-08-21T03:46:43;24.70;79.90
15983;DHT22;14442;50.196;8.096;2023-08-21T03:49:10;24.70;79.90
15983;DHT22;14442;50.196;8.096;2023-08-21T03:51:37;24.70;79.90
15983;DHT22;14442;50.196;8.096;2023-08-21T03:54:04;24.70;79.80
15983;DHT22;14442;50.196;8.096;2023-08-21T03:56:31;24.70;79.80
15983;DHT22;14442;50.196;8.096;2023-08-21T03:58:59;24.70;79.90
15983;DHT22;14442;50.196;8.096;2023-08-21T04:01:26;24.70;79.80
15983;DHT22;14442;50.196;8.096;2023-08-21T04:03:53;24.70;79.60
15983;DHT22;14442;50.196;8.096;2023-08-21T04:06:20;24.70;79.60
15983;DHT22;14442;50.196;8.096;2023-08-21T04:08:47;24.70;79.70
15983;DHT22;14442;50.196;8.096;2023-08-21T04:11:13;24.70;79.70
15983;DHT22;14442;50.196;8.096;2023-08-21T04:13:41;24.70;79.40
15983;DHT22;14442;50.196;8.096;2023-08-21T04:16:09;24.70;79.10
15983;DHT22;14442;50.196;8.096;2023-08-21T04:18:37;24.70;79.20
15983;DHT22;14442;50.196;8.096;2023-08-21T04:21:04;24.70;80.00
15983;DHT22;14442;50.196;8.096;2023-08-21T04:23:31;24.70;79.30
15983;DHT22;14442;50.196;8.096;2023-08-21T04:26:00;24.70;79.10
15983;DHT22;14442;50.196;8.096;2023-08-21T04:28:28;24.60;79.10
15983;DHT22;14442;50.196;8.096;2023-08-21T04:30:54;24.70;79.50
15983;DHT22;14442;50.196;8.096;2023-08-21T04:33:24;24.70;79.70
15983;DHT22;14442;50.196;8.096;2023-08-21T04:35:51;24.60;79.50
15983;DHT22;14442;50.196;8.096;2023-08-21T04:38:17;24.60;79.30
15983;DHT22;14442;50.196;8.096;2023-08-21T04:40:44;24.60;79.40
15983;DHT22;14442;50.196;8.096;2023-08-21T04:43:11;24.60;79.70
15983;DHT22;14442;50.196;8.096;2023-08-21T04:45:37;24.60;79.50
15983;DHT22;14442;50.196;8.096;2023-08-21T04:48:05;24.60;79.40
15983;DHT22;14442;50.196;8.096;2023-08-21T04:50:33;24.60;79.50
15983;DHT22;14442;50.196;8.096;2023-08-21T04:52:59;24.60;79.30
15983;DHT22;14442;50.196;8.096;2023-08-21T04:55:26;24.60;79.40
15983;DHT22;14442;50.196;8.096;2023-08-21T04:57:53;24.60;79.40
15983;DHT22;14442;50.196;8.096;2023-08-21T05:00:19;24.60;79.50
15983;DHT22;14442;50.196;8.096;2023-08-21T05:02:46;24.60;79.40
15983;DHT22;14442;50.196;8.096;2023-08-21T05:05:13;24.60;79.40
15983;DHT22;14442;50.196;8.096;2023-08-21T05:10:14;24.60;79.30
15983;DHT22;14442;50.196;8.096;2023-08-21T05:12:41;24.60;79.20
15983;DHT22;14442;50.196;8.096;2023-08-21T05:15:09;24.60;79.30
15983;DHT22;14442;50.196;8.096;2023-08-21T05:17:35;24.60;79.20
15983;DHT22;14442;50.196;8.096;2023-08-21T05:20:03;24.60;79.00
15983;DHT22;14442;50.196;8.096;2023-08-21T05:22:29;24.60;78.90
15983;DHT22;14442;50.196;8.096;2023-08-21T05:24:56;24.70;79.00
15983;DHT22;14442;50.196;8.096;2023-08-21T05:27:24;24.70;78.90
15983;DHT22;14442;50.196;8.096;2023-08-21T05:29:51;24.70;78.90
15983;DHT22;14442;50.196;8.096;2023-08-21T05:32:18;24.70;78.90
15983;DHT22;14442;50.196;8.096;2023-08-21T05:34:44;24.60;78.70
15983;DHT22;14442;50.196;8.096;2023-08-21T05:37:11;24.70;78.80
15983;DHT22;14442;50.196;8.096;2023-08-21T05:39:38;24.60;78.70
15983;DHT22;14442;50.196;8.096;2023-08-21T05:42:05;24.70;78.80
15983;DHT22;14442;50.196;8.096;2023-08-21T05:44:33;24.70;78.80
15983;DHT22;14442;50.196;8.096;2023-08-21T05:46:59;24.70;78.80
15983;DHT22;14442;50.196;8.096;2023-08-21T05:49:26;24.70;78.80
15983;DHT22;14442;50.196;8.096;2023-08-21T05:51:53;24.70;78.90
15983;DHT22;14442;50.196;8.096;2023-08-21T05:54:20;24.70;78.80
15983;DHT22;14442;50.196;8.096;2023-08-21T05:56:46;24.70;78.80
15983;DHT22;14442;50.196;8.096;2023-08-21T05:59:26;24.70;79.00
15983;DHT22;14442;50.196;8.096;2023-08-21T06:01:54;24.70;78.80
15983;DHT22;14442;50.196;8.096;2023-08-21T06:04:21;24.70;78.90
15983;DHT22;14442;50.196;8.096;2023-08-21T06:06:48;24.70;78.80
15983;DHT22;14442;50.196;8.096;2023-08-21T06:09:15;24.70;78.80
15983;DHT22;14442;50.196;8.096;2023-08-21T06:11:42;24.70;78.70
15983;DHT22;14442;50.196;8.096;2023-08-21T06:14:09;24.70;78.70
15983;DHT22;14442;50.196;8.096;2023-08-21T06:16:36;24.70;78.70
15983;DHT22;14442;50.196;8.096;2023-08-21T06:19:04;24.70;78.60
15983;DHT22;14442;50.196;8.096;2023-08-21T06:21:31;24.70;78.60
15983;DHT22;14442;50.196;8.096;2023-08-21T06:23:57;24.70;78.70
15983;DHT22;14442;50.196;8.096;2023-08-21T06:26:24;24.70;78.70
15983;DHT22;14442;50.196;8.096;2023-08-21T06:28:51;24.70;78.70
15983;DHT22;14442;50.196;8.096;2023-08-21T06:31:18;24.70;78.70
15983;DHT22;14442;50.196;8.096;2023-08-21T06:33:45;24.70;78.70
15983;DHT22;14442;50.196;8.096;2023-08-21T06:36:13;24.70;78.60
15983;DHT22;14442;50.196;8.096;2023-08-21T06:38:40;24.70;78.50
15983;DHT22;14442;50.196;8.096;2023-08-21T06:41:07;24.70;78.60
15983;DHT22;14442;50.196;8.096;2023-08-21T06:43:34;24.70;78.60
15983;DHT22;14442;50.196;8.096;2023-08-21T06:46:01;24.70;78.60
15983;DHT22;14442;50.196;8.096;2023-08-21T06:48:28;24.70;78.60
15983;DHT22;14442;50.196;8.096;2023-08-21T06:50:54;24.70;78.50
15983;DHT22;14442;50.196;8.096;2023-08-21T06:53:23;24.80;78.60
15983;DHT22;14442;50.196;8.096;2023-08-21T06:55:50;24.80;78.60
15983;DHT22;14442;50.196;8.096;2023-08-21T06:58:17;24.80;78.60
15983;DHT22;14442;50.196;8.096;2023-08-21T07:00:44;24.70;78.60
15983;DHT22;14442;50.196;8.096;2023-08-21T07:03:10;24.70;78.60
15983;DHT22;14442;50.196;8.096;2023-08-21T07:05:37;24.80;78.70
15983;DHT22;14442;50.196;8.096;2023-08-21T07:08:04;24.80;78.80
15983;DHT22;14442;50.196;8.096;2023-08-21T07:10:37;24.80;78.80
15983;DHT22;14442;50.196;8.096;2023-08-21T07:13:04;24.80;78.70
15983;DHT22;14442;50.196;8.096;2023-08-21T07:15:30;24.80;78.70
15983;DHT22;14442;50.196;8.096;2023-08-21T07:17:57;24.80;78.60
15983;DHT22;14442;50.196;8.096;2023-08-21T07:20:24;24.90;78.60
15983;DHT22;14442;50.196;8.096;2023-08-21T07:22:50;24.90;78.60
15983;DHT22;14442;50.196;8.096;2023-08-21T07:25:17;24.80;78.50
15983;DHT22;14442;50.196;8.096;2023-08-21T07:27:45;24.90;78.70
15983;DHT22;14442;50.196;8.096;2023-08-21T07:30:12;24.90;78.90
15983;DHT22;14442;50.196;8.096;2023-08-21T07:32:39;24.90;78.90
15983;DHT22;14442;50.196;8.096;2023-08-21T07:35:06;24.90;78.90
15983;DHT22;14442;50.196;8.096;2023-08-21T07:37:33;24.90;79.10
15983;DHT22;14442;50.196;8.096;2023-08-21T07:40:00;24.90;78.90
15983;DHT22;14442;50.196;8.096;2023-08-21T07:42:27;24.90;78.90
15983;DHT22;14442;50.196;8.096;2023-08-21T07:44:55;24.90;78.90
15983;DHT22;14442;50.196;8.096;2023-08-21T07:47:22;24.90;79.00
15983;DHT22;14442;50.196;8.096;2023-08-21T07:49:48;25.00;79.10
15983;DHT22;14442;50.196;8.096;2023-08-21T07:52:15;25.00;79.10
15983;DHT22;14442;50.196;8.096;2023-08-21T07:54:42;25.00;79.30
15983;DHT22;14442;50.196;8.096;2023-08-21T07:57:08;25.00;79.20
15983;DHT22;14442;50.196;8.096;2023-08-21T07:59:35;25.00;79.10
15983;DHT22;14442;50.196;8.096;2023-08-21T08:02:03;25.10;79.10
15983;DHT22;14442;50.196;8.096;2023-08-21T08:04:30;25.10;79.40
15983;DHT22;14442;50.196;8.096;2023-08-21T08:06:57;25.10;79.90
15983;DHT22;14442;50.196;8.096;2023-08-21T08:09:24;25.10;79.30
15983;DHT22;14442;50.196;8.096;2023-08-21T08:11:50;25.10;79.30
15983;DHT22;14442;50.196;8.096;2023-08-21T08:14:17;25.10;79.50
15983;DHT22;14442;50.196;8.096;2023-08-21T08:16:44;25.10;79.60
15983;DHT22;14442;50.196;8.096;2023-08-21T08:19:12;25.10;79.70
15983;DHT22;14442;50.196;8.096;2023-08-21T08:21:39;25.20;79.80
15983;DHT22;14442;50.196;8.096;2023-08-21T08:24:05;25.20;79.90
15983;DHT22;14442;50.196;8.096;2023-08-21T08:26:32;25.20;79.90
15983;DHT22;14442;50.196;8.096;2023-08-21T08:28:59;25.20;80.60
15983;DHT22;14442;50.196;8.096;2023-08-21T08:31:26;25.20;79.90
15983;DHT22;14442;50.196;8.096;2023-08-21T08:33:53;25.20;79.90
15983;DHT22;14442;50.196;8.096;2023-08-21T08:36:22;25.20;79.90
15983;DHT22;14442;50.196;8.096;2023-08-21T08:38:48;25.20;80.00
15983;DHT22;14442;50.196;8.096;2023-08-21T08:41:36;25.20;80.10
15983;DHT22;14442;50.196;8.096;2023-08-21T08:44:04;25.20;80.10
15983;DHT22;14442;50.196;8.096;2023-08-21T08:46:32;25.20;79.90
15983;DHT22;14442;50.196;8.096;2023-08-21T08:48:59;25.20;79.80
15983;DHT22;14442;50.196;8.096;2023-08-21T08:51:28;25.20;79.70
15983;DHT22;14442;50.196;8.096;2023-08-21T08:53:56;25.20;79.60
15983;DHT22;14442;50.196;8.096;2023-08-21T08:56:24;25.20;79.60
15983;DHT22;14442;50.196;8.096;2023-08-21T08:58:51;25.10;79.50
15983;DHT22;14442;50.196;8.096;2023-08-21T09:01:18;25.10;79.50
15983;DHT22;14442;50.196;8.096;2023-08-21T09:03:45;25.10;79.40
15983;DHT22;14442;50.196;8.096;2023-08-21T09:06:11;25.20;79.40
15983;DHT22;14442;50.196;8.096;2023-08-21T09:08:50;25.20;79.30
15983;DHT22;14442;50.196;8.096;2023-08-21T09:11:20;25.20;80.00
15983;DHT22;14442;50.196;8.096;2023-08-21T09:13:49;25.20;79.10
15983;DHT22;14442;50.196;8.096;2023-08-21T09:16:17;25.20;79.20
15983;DHT22;14442;50.196;8.096;2023-08-21T09:18:47;25.20;79.00
15983;DHT22;14442;50.196;8.096;2023-08-21T09:21:16;25.30;79.00
15983;DHT22;14442;50.196;8.096;2023-08-21T09:23:44;25.20;79.10
15983;DHT22;14442;50.196;8.096;2023-08-21T09:26:17;25.20;79.50
15983;DHT22;14442;50.196;8.096;2023-08-21T09:28:44;25.30;79.70
15983;DHT22;14442;50.196;8.096;2023-08-21T09:31:11;25.30;79.90
15983;DHT22;14442;50.196;8.096;2023-08-21T09:33:38;25.30;80.10
15983;DHT22;14442;50.196;8.096;2023-08-21T09:36:05;25.30;80.00
15983;DHT22;14442;50.196;8.096;2023-08-21T09:38:33;25.40;80.10
15983;DHT22;14442;50.196;8.096;2023-08-21T09:41:02;25.30;80.10
15983;DHT22;14442;50.196;8.096;2023-08-21T09:43:28;25.40;80.20
15983;DHT22;14442;50.196;8.096;2023-08-21T09:45:56;25.40;80.20
15983;DHT22;14442;50.196;8.096;2023-08-21T09:48:24;25.40;80.20
15983;DHT22;14442;50.196;8.096;2023-08-21T09:50:52;25.40;80.40
15983;DHT22;14442;50.196;8.096;2023-08-21T09:53:21;25.40;80.30
15983;DHT22;14442;50.196;8.096;2023-08-21T09:55:53;25.50;80.30
15983;DHT22;14442;50.196;8.096;2023-08-21T09:58:21;25.50;80.20
15983;DHT22;14442;50.196;8.096;2023-08-21T10:00:49;25.50;80.20
15983;DHT22;14442;50.196;8.096;2023-08-21T10:03:18;25.60;80.20
15983;DHT22;14442;50.196;8.096;2023-08-21T10:05:47;25.60;80.20
15983;DHT22;14442;50.196;8.096;2023-08-21T10:08:16;25.50;80.00
15983;DHT22;14442;50.196;8.096;2023-08-21T10:10:43;25.50;80.20
15983;DHT22;14442;50.196;8.096;2023-08-21T10:13:10;25.50;80.30
15983;DHT22;14442;50.196;8.096;2023-08-21T10:15:39;25.50;80.20
15983;DHT22;14442;50.196;8.096;2023-08-21T10:18:19;25.60;80.30
15983;DHT22;14442;50.196;8.096;2023-08-21T10:20:46;25.60;80.30
15983;DHT22;14442;50.196;8.096;2023-08-21T10:23:24;25.50;80.30
15983;DHT22;14442;50.196;8.096;2023-08-21T10:25:54;25.50;80.50
15983;DHT22;14442;50.196;8.096;2023-08-21T10:28:22;25.60;80.60
15983;DHT22;14442;50.196;8.096;2023-08-21T10:30:50;25.60;80.70
15983;DHT22;14442;50.196;8.096;2023-08-21T10:33:26;25.70;80.70
15983;DHT22;14442;50.196;8.096;2023-08-21T10:36:11;25.70;80.70
15983;DHT22;14442;50.196;8.096;2023-08-21T10:38:58;25.70;80.60
15983;DHT22;14442;50.196;8.096;2023-08-21T10:41:26;25.70;80.50
15983;DHT22;14442;50.196;8.096;2023-08-21T10:43:53;25.70;80.30
15983;DHT22;14442;50.196;8.096;2023-08-21T10:46:22;25.70;80.40
15983;DHT22;14442;50.196;8.096;2023-08-21T10:48:48;25.70;80.60
15983;DHT22;14442;50.196;8.096;2023-08-21T10:51:16;25.70;80.60
15983;DHT22;14442;50.196;8.096;2023-08-21T10:53:43;25.70;80.60
15983;DHT22;14442;50.196;8.096;2023-08-21T10:56:10;25.70;80.60
15983;DHT22;14442;50.196;8.096;2023-08-21T10:58:40;25.70;80.70
15983;DHT22;14442;50.196;8.096;2023-08-21T11:01:07;25.70;80.80
15983;DHT22;14442;50.196;8.096;2023-08-21T11:03:38;25.70;80.90
15983;DHT22;14442;50.196;8.096;2023-08-21T11:06:05;25.70;81.10
15983;DHT22;14442;50.196;8.096;2023-08-21T11:08:32;25.70;81.10
15983;DHT22;14442;50.196;8.096;2023-08-21T11:10:59;25.70;81.10
15983;DHT22;14442;50.196;8.096;2023-08-21T11:13:26;25.70;81.20
15983;DHT22;14442;50.196;8.096;2023-08-21T11:16:04;25.70;81.30
15983;DHT22;14442;50.196;8.096;2023-08-21T11:18:31;25.70;81.40
15983;DHT22;14442;50.196;8.096;2023-08-21T11:21:10;25.70;81.60
15983;DHT22;14442;50.196;8.096;2023-08-21T11:23:38;25.70;81.60
15983;DHT22;14442;50.196;8.096;2023-08-21T11:26:05;25.70;81.70
15983;DHT22;14442;50.196;8.096;2023-08-21T11:28:32;25.70;81.70
15983;DHT22;14442;50.196;8.096;2023-08-21T11:30:59;25.70;81.80
15983;DHT22;14442;50.196;8.096;2023-08-21T11:33:27;25.70;81.70
15983;DHT22;14442;50.196;8.096;2023-08-21T11:35:54;25.70;81.60
15983;DHT22;14442;50.196;8.096;2023-08-21T11:38:25;25.70;82.60
15983;DHT22;14442;50.196;8.096;2023-08-21T11:40:54;25.80;81.90
15983;DHT22;14442;50.196;8.096;2023-08-21T11:43:21;25.80;81.80
15983;DHT22;14442;50.196;8.096;2023-08-21T11:45:47;25.80;81.80
15983;DHT22;14442;50.196;8.096;2023-08-21T11:48:14;25.80;81.60
15983;DHT22;14442;50.196;8.096;2023-08-21T11:50:41;25.80;81.70
15983;DHT22;14442;50.196;8.096;2023-08-21T11:53:08;25.80;82.00
15983;DHT22;14442;50.196;8.096;2023-08-21T11:55:38;25.80;82.00
15983;DHT22;14442;50.196;8.096;2023-08-21T11:58:06;25.90;82.20
15983;DHT22;14442;50.196;8.096;2023-08-21T12:00:32;25.90;81.70
15983;DHT22;14442;50.196;8.096;2023-08-21T12:03:01;25.90;82.00
15983;DHT22;14442;50.196;8.096;2023-08-21T12:05:28;25.90;82.30
15983;DHT22;14442;50.196;8.096;2023-08-21T12:07:55;25.90;82.80
15983;DHT22;14442;50.196;8.096;2023-08-21T12:10:23;26.00;83.00
15983;DHT22;14442;50.196;8.096;2023-08-21T12:12:51;26.00;82.30
15983;DHT22;14442;50.196;8.096;2023-08-21T12:15:18;26.10;82.10
15983;DHT22;14442;50.196;8.096;2023-08-21T12:17:45;26.10;81.80
15983;DHT22;14442;50.196;8.096;2023-08-21T12:20:11;26.10;81.80
15983;DHT22;14442;50.196;8.096;2023-08-21T12:22:40;26.10;81.90
15983;DHT22;14442;50.196;8.096;2023-08-21T12:25:08;26.20;81.60
15983;DHT22;14442;50.196;8.096;2023-08-21T12:27:35;26.20;81.40
15983;DHT22;14442;50.196;8.096;2023-08-21T12:30:04;26.20;81.10
15983;DHT22;14442;50.196;8.096;2023-08-21T12:32:30;26.30;80.90
15983;DHT22;14442;50.196;8.096;2023-08-21T12:34:57;26.20;80.70
15983;DHT22;14442;50.196;8.096;2023-08-21T12:37:24;26.20;80.60
15983;DHT22;14442;50.196;8.096;2023-08-21T12:39:51;26.20;80.60
15983;DHT22;14442;50.196;8.096;2023-08-21T12:42:17;26.20;80.40
15983;DHT22;14442;50.196;8.096;2023-08-21T12:44:44;26.30;81.20
15983;DHT22;14442;50.196;8.096;2023-08-21T12:47:12;26.30;81.00
15983;DHT22;14442;50.196;8.096;2023-08-21T12:49:39;26.30;80.90
15983;DHT22;14442;50.196;8.096;2023-08-21T12:52:05;26.40;80.70
15983;DHT22;14442;50.196;8.096;2023-08-21T12:54:32;26.40;80.30
15983;DHT22;14442;50.196;8.096;2023-08-21T12:56:59;26.40;80.50
15983;DHT22;14442;50.196;8.096;2023-08-21T12:59:26;26.50;80.20
15983;DHT22;14442;50.196;8.096;2023-08-21T13:01:52;26.50;81.40
15983;DHT22;14442;50.196;8.096;2023-08-21T13:04:21;26.50;81.50
15983;DHT22;14442;50.196;8.096;2023-08-21T13:06:47;26.60;81.10
15983;DHT22;14442;50.196;8.096;2023-08-21T13:09:14;26.60;80.40
15983;DHT22;14442;50.196;8.096;2023-08-21T13:11:41;26.60;81.10
15983;DHT22;14442;50.196;8.096;2023-08-21T13:14:07;26.60;80.50
15983;DHT22;14442;50.196;8.096;2023-08-21T13:16:34;26.60;81.10
15983;DHT22;14442;50.196;8.096;2023-08-21T13:19:01;26.50;80.80
15983;DHT22;14442;50.196;8.096;2023-08-21T13:21:29;26.50;80.40
15983;DHT22;14442;50.196;8.096;2023-08-21T13:23:56;26.60;80.20
15983;DHT22;14442;50.196;8.096;2023-08-21T13:26:22;26.70;80.10
15983;DHT22;14442;50.196;8.096;2023-08-21T13:28:51;26.70;79.80
15983;DHT22;14442;50.196;8.096;2023-08-21T13:31:17;26.70;79.50
15983;DHT22;14442;50.196;8.096;2023-08-21T13:33:44;26.70;79.40
15983;DHT22;14442;50.196;8.096;2023-08-21T13:36:11;26.70;79.10
15983;DHT22;14442;50.196;8.096;2023-08-21T13:38:39;26.80;79.20
15983;DHT22;14442;50.196;8.096;2023-08-21T13:41:06;26.80;79.10
15983;DHT22;14442;50.196;8.096;2023-08-21T13:43:33;26.90;79.20
15983;DHT22;14442;50.196;8.096;2023-08-21T13:46:01;26.90;79.30
15983;DHT22;14442;50.196;8.096;2023-08-21T13:48:29;26.90;79.20
15983;DHT22;14442;50.196;8.096;2023-08-21T13:50:56;26.90;79.40
15983;DHT22;14442;50.196;8.096;2023-08-21T13:53:23;26.80;79.20
15983;DHT22;14442;50.196;8.096;2023-08-21T13:55:51;26.80;79.00
15983;DHT22;14442;50.196;8.096;2023-08-21T13:58:18;26.80;79.10
15983;DHT22;14442;50.196;8.096;2023-08-21T14:00:45;26.70;79.10
15983;DHT22;14442;50.196;8.096;2023-08-21T14:03:11;26.60;79.00
15983;DHT22;14442;50.196;8.096;2023-08-21T14:05:38;26.60;79.10
15983;DHT22;14442;50.196;8.096;2023-08-21T14:08:05;26.60;79.80
15983;DHT22;14442;50.196;8.096;2023-08-21T14:10:32;26.60;79.10
15983;DHT22;14442;50.196;8.096;2023-08-21T14:13:01;26.60;79.10
15983;DHT22;14442;50.196;8.096;2023-08-21T14:15:29;26.60;78.80
15983;DHT22;14442;50.196;8.096;2023-08-21T14:17:55;26.70;78.70
15983;DHT22;14442;50.196;8.096;2023-08-21T14:20:22;26.70;78.50
15983;DHT22;14442;50.196;8.096;2023-08-21T14:22:49;26.80;78.40
15983;DHT22;14442;50.196;8.096;2023-08-21T14:25:16;26.80;78.30
15983;DHT22;14442;50.196;8.096;2023-08-21T14:27:43;26.80;78.10
15983;DHT22;14442;50.196;8.096;2023-08-21T14:30:12;26.80;78.10
15983;DHT22;14442;50.196;8.096;2023-08-21T14:32:39;26.80;78.10
15983;DHT22;14442;50.196;8.096;2023-08-21T14:35:07;26.90;78.20
15983;DHT22;14442;50.196;8.096;2023-08-21T14:37:35;26.80;78.10
15983;DHT22;14442;50.196;8.096;2023-08-21T14:40:02;26.80;77.90
15983;DHT22;14442;50.196;8.096;2023-08-21T14:42:32;26.90;77.80
15983;DHT22;14442;50.196;8.096;2023-08-21T14:44:59;26.90;77.60
15983;DHT22;14442;50.196;8.096;2023-08-21T14:47:27;26.90;77.60
15983;DHT22;14442;50.196;8.096;2023-08-21T14:49:54;26.80;77.70
15983;DHT22;14442;50.196;8.096;2023-08-21T14:52:21;26.90;77.70
15983;DHT22;14442;50.196;8.096;2023-08-21T14:54:48;26.90;77.60
15983;DHT22;14442;50.196;8.096;2023-08-21T14:57:15;26.90;77.70
15983;DHT22;14442;50.196;8.096;2023-08-21T14:59:42;26.80;77.60
15983;DHT22;14442;50.196;8.096;2023-08-21T15:02:08;26.80;77.60
15983;DHT22;14442;50.196;8.096;2023-08-21T15:04:36;26.80;77.60
15983;DHT22;14442;50.196;8.096;2023-08-21T15:07:03;26.80;77.70
15983;DHT22;14442;50.196;8.096;2023-08-21T15:09:30;26.80;77.70
15983;DHT22;14442;50.196;8.096;2023-08-21T15:11:57;26.80;77.40
15983;DHT22;14442;50.196;8.096;2023-08-21T15:14:23;26.80;77.50
15983;DHT22;14442;50.196;8.096;2023-08-21T15:16:50;26.80;77.40
15983;DHT22;14442;50.196;8.096;2023-08-21T15:19:17;26.70;77.40
15983;DHT22;14442;50.196;8.096;2023-08-21T15:21:45;26.70;78.10
15983;DHT22;14442;50.196;8.096;2023-08-21T15:24:11;26.70;77.30
15983;DHT22;14442;50.196;8.096;2023-08-21T15:26:38;26.80;78.20
15983;DHT22;14442;50.196;8.096;2023-08-21T15:29:05;26.70;77.50
15983;DHT22;14442;50.196;8.096;2023-08-21T15:31:31;26.70;77.60
15983;DHT22;14442;50.196;8.096;2023-08-21T15:33:58;26.70;77.70